Saint Johnsbury, Vermont
Current Conditions -  °F | °C
As of 3:55 AM on Friday 24 Oct 2014 (Local Time) from KCDA Reporting Station
Drizzle Drizzle  
Wind Chill: 39°   Ceiling: 1400
Heat Index: 43°   Visibility: 3mi
Dew Point: 39°   Wind: 6mph
Humidity: 88%   Direction: 270°W
Pressure: 29.77"   Gusts: NA
Location:  44.42°N, 72.01°W
Report Text: KCDA 240755Z AUTO 27005KT 3SM -DZ BKN014 OVC024 06/04 A2977 RMK AO2 T00600041
Loading
Personal Weather Stations






























Interactive Weather Map New forecast layout! Learn more

10-Day Weather Forecast

Advertisements
Track Severe Weather on mobile